createdAt,value
2023-11-28T00:03:51.954Z,2.69
2023-11-28T00:08:56.260Z,2.65
2023-11-28T00:14:00.265Z,2.68
2023-11-28T00:19:05.139Z,2.66
2023-11-28T00:24:09.235Z,2.65
2023-11-28T00:29:12.338Z,2.67
2023-11-28T00:34:16.709Z,2.67
2023-11-28T00:39:20.149Z,2.69
2023-11-28T00:44:23.517Z,2.68
2023-11-28T00:49:28.505Z,2.68
2023-11-28T00:54:31.547Z,2.59
2023-11-28T00:59:34.840Z,2.65
2023-11-28T01:04:40.086Z,2.62
2023-11-28T01:09:43.197Z,2.64
2023-11-28T01:14:46.375Z,2.61
2023-11-28T01:19:51.224Z,2.54
2023-11-28T01:24:54.333Z,2.48
2023-11-28T01:29:57.457Z,2.48
2023-11-28T01:35:01.919Z,2.44
2023-11-28T01:40:05.767Z,2.45
2023-11-28T01:45:10.304Z,2.37
2023-11-28T01:50:14.699Z,2.37
2023-11-28T01:55:18.314Z,2.29
2023-11-28T02:00:21.433Z,2.19
2023-11-28T02:05:26.679Z,2.21
2023-11-28T02:10:29.900Z,2.16
2023-11-28T02:15:43.727Z,2.18
2023-11-28T02:20:47.990Z,2.16
2023-11-28T02:25:53.197Z,2.12
2023-11-28T02:30:59.892Z,2.05
2023-11-28T02:36:03.105Z,2.08
2023-11-28T02:41:08.246Z,2.04
2023-11-28T02:46:13.769Z,2.09
2023-11-28T02:51:20.969Z,2.06
2023-11-28T02:56:27.348Z,1.98
2023-11-28T03:01:31.760Z,2.00
2023-11-28T03:06:34.841Z,1.96
2023-11-28T03:11:37.881Z,1.92
2023-11-28T03:16:44.038Z,1.99
2023-11-28T03:21:47.132Z,1.92
2023-11-28T03:26:50.073Z,1.90
2023-11-28T03:31:54.523Z,1.84
2023-11-28T03:36:59.361Z,1.82
2023-11-28T03:42:02.760Z,1.74
2023-11-28T03:47:08.358Z,1.64
2023-11-28T03:52:11.572Z,1.61
2023-11-28T03:57:15.003Z,1.51
2023-11-28T04:02:19.920Z,1.41
2023-11-28T04:07:24.355Z,1.24
2023-11-28T04:12:27.669Z,1.13
2023-11-28T04:17:32.117Z,0.98
2023-11-28T04:22:35.303Z,0.87
2023-11-28T04:27:38.495Z,0.70
2023-11-28T04:32:43.598Z,0.61
2023-11-28T04:37:49.061Z,0.50
2023-11-28T04:42:52.739Z,0.41
2023-11-28T04:47:58.159Z,0.31
2023-11-28T04:53:01.403Z,0.26
2023-11-28T04:58:04.870Z,0.19
2023-11-28T05:03:09.471Z,0.21
2023-11-28T05:08:13.286Z,0.13
2023-11-28T05:13:16.433Z,0.06
2023-11-28T05:18:20.857Z,0.05
2023-11-28T05:23:24.641Z,0.07
2023-11-28T05:28:28.007Z,0.00
2023-11-28T05:33:32.700Z,-0.02
2023-11-28T05:38:36.147Z,-0.03
2023-11-28T05:43:39.572Z,0.00
2023-11-28T05:48:44.356Z,-0.03
2023-11-28T05:53:47.813Z,-0.05
2023-11-28T05:58:51.045Z,-0.03
2023-11-28T06:03:55.601Z,-0.05
2023-11-28T06:08:58.665Z,-0.03
2023-11-28T06:14:02.478Z,0.00
2023-11-28T06:19:06.956Z,-0.04
2023-11-28T06:24:10.541Z,0.00
2023-11-28T06:29:13.733Z,-0.01
2023-11-28T06:34:18.158Z,-0.03
2023-11-28T06:39:24.661Z,-0.07
2023-11-28T06:44:30.410Z,-0.08
2023-11-28T06:49:35.797Z,-0.13
2023-11-28T06:54:39.197Z,-0.09
2023-11-28T06:59:42.833Z,-0.13
2023-11-28T07:04:47.226Z,-0.14
2023-11-28T07:09:50.315Z,-0.14
2023-11-28T07:14:53.447Z,-0.11
2023-11-28T07:19:58.573Z,-0.14
2023-11-28T07:25:02.342Z,-0.21
2023-11-28T07:30:07.489Z,-0.21
2023-11-28T07:35:12.055Z,-0.24
2023-11-28T07:40:15.341Z,-0.21
2023-11-28T07:45:18.718Z,-0.20
2023-11-28T07:50:24.768Z,-0.22
2023-11-28T07:55:31.351Z,-0.19
2023-11-28T08:00:34.427Z,-0.16
2023-11-28T08:05:39.451Z,-0.14
2023-11-28T08:10:42.806Z,-0.10
2023-11-28T08:15:46.022Z,-0.01
2023-11-28T08:20:50.569Z,0.02
2023-11-28T08:25:53.763Z,0.06
2023-11-28T08:30:57.136Z,0.08
2023-11-28T08:36:01.572Z,0.14
2023-11-28T08:41:04.981Z,0.27
2023-11-28T08:46:08.552Z,0.43
2023-11-28T08:51:13.439Z,0.64
2023-11-28T08:56:17.203Z,0.87
2023-11-28T09:01:20.411Z,1.07
2023-11-28T09:06:26.383Z,1.34
2023-11-28T09:11:29.876Z,1.58
2023-11-28T09:16:33.211Z,1.75
2023-11-28T09:21:38.156Z,1.90
2023-11-28T09:26:41.279Z,2.22
2023-11-28T09:31:44.414Z,2.31
2023-11-28T09:36:49.000Z,2.47
2023-11-28T09:41:52.785Z,2.52
2023-11-28T09:46:58.852Z,2.69
2023-11-28T09:52:04.442Z,2.78
2023-11-28T09:57:08.440Z,2.73
2023-11-28T10:02:14.394Z,2.93
2023-11-28T10:07:23.269Z,3.12
2023-11-28T10:12:26.461Z,3.16
2023-11-28T10:17:29.719Z,3.16
2023-11-28T10:22:35.147Z,3.28
2023-11-28T10:27:41.033Z,3.37
2023-11-28T10:32:44.484Z,3.32
2023-11-28T10:37:49.062Z,3.39
2023-11-28T10:42:53.287Z,3.44
2023-11-28T10:47:57.292Z,3.51
2023-11-28T10:53:05.663Z,3.65
2023-11-28T10:58:14.120Z,3.94
2023-11-28T11:03:18.343Z,4.16
2023-11-28T11:08:24.342Z,4.32
2023-11-28T11:13:37.648Z,4.33
2023-11-28T11:18:43.253Z,4.18
2023-11-28T11:23:49.706Z,4.18
2023-11-28T11:28:52.938Z,4.39
2023-11-28T11:33:55.996Z,4.48
2023-11-28T11:39:00.476Z,4.53
2023-11-28T11:44:04.129Z,4.70
2023-11-28T11:49:07.227Z,4.82
2023-11-28T11:54:12.706Z,4.93
2023-11-28T11:59:21.821Z,4.83
2023-11-28T12:04:25.247Z,5.07
2023-11-28T12:09:30.094Z,4.91
2023-11-28T12:14:33.349Z,4.86
2023-11-28T12:19:36.909Z,5.10
2023-11-28T12:24:41.522Z,4.98
2023-11-28T12:29:45.278Z,5.24
2023-11-28T12:34:48.426Z,5.04
2023-11-28T12:39:56.278Z,4.97
2023-11-28T12:44:59.566Z,4.96
2023-11-28T12:50:03.989Z,5.22
2023-11-28T12:55:13.424Z,5.29
2023-11-28T13:00:17.233Z,5.60
2023-11-28T13:05:20.435Z,5.68
2023-11-28T13:10:24.820Z,5.65
2023-11-28T13:15:27.922Z,5.67
2023-11-28T13:20:31.047Z,5.70
2023-11-28T13:25:35.473Z,5.72
2023-11-28T13:30:39.099Z,5.76
2023-11-28T13:35:42.432Z,5.71
2023-11-28T13:40:48.631Z,5.83
2023-11-28T13:45:52.516Z,5.86
2023-11-28T13:50:56.131Z,6.07
2023-11-28T13:56:00.708Z,5.71
2023-11-28T14:01:05.206Z,5.98
2023-11-28T14:06:08.901Z,5.89
2023-11-28T14:11:13.590Z,6.03
2023-11-28T14:16:16.783Z,6.10
2023-11-28T14:21:20.015Z,6.24
2023-11-28T14:26:24.790Z,6.32
2023-11-28T14:31:28.304Z,6.37
2023-11-28T14:36:31.464Z,6.31
2023-11-28T14:41:36.061Z,6.37
2023-11-28T14:46:39.452Z,6.32
2023-11-28T14:51:42.969Z,6.19
2023-11-28T14:56:50.439Z,6.00
2023-11-28T15:01:54.730Z,5.85
2023-11-28T15:06:58.004Z,5.38
2023-11-28T15:12:05.015Z,5.11
2023-11-28T15:17:11.769Z,4.97
2023-11-28T15:22:19.636Z,4.72
2023-11-28T15:27:24.817Z,4.38
2023-11-28T15:32:29.461Z,4.25
2023-11-28T15:37:32.796Z,4.07
2023-11-28T15:42:38.021Z,3.99
2023-11-28T15:47:41.618Z,3.92
2023-11-28T15:52:44.918Z,3.86
2023-11-28T15:57:52.644Z,3.73
2023-11-28T16:02:59.270Z,3.61
2023-11-28T16:08:05.483Z,3.49
2023-11-28T16:13:12.822Z,3.33
2023-11-28T16:18:16.047Z,3.27
2023-11-28T16:23:19.203Z,3.15
2023-11-28T16:28:24.010Z,3.05
2023-11-28T16:33:27.303Z,2.99
2023-11-28T16:38:39.393Z,2.89
2023-11-28T16:43:44.819Z,2.75
2023-11-28T16:48:48.238Z,2.65
2023-11-28T16:53:51.362Z,2.59
2023-11-28T16:58:55.919Z,2.55
2023-11-28T17:04:01.716Z,2.47
2023-11-28T17:09:05.004Z,2.36
2023-11-28T17:14:10.974Z,2.32
2023-11-28T17:19:14.650Z,2.29
2023-11-28T17:24:17.748Z,2.25
2023-11-28T17:29:22.406Z,2.21
2023-11-28T17:34:27.273Z,2.31
2023-11-28T17:39:30.395Z,2.37
2023-11-28T17:44:38.366Z,2.45
2023-11-28T17:49:41.493Z,2.41
2023-11-28T17:54:44.618Z,2.38
2023-11-28T17:59:49.992Z,2.33
2023-11-28T18:04:54.577Z,2.40
2023-11-28T18:09:58.183Z,2.51
2023-11-28T18:15:03.569Z,2.48
2023-11-28T18:20:07.788Z,2.56
2023-11-28T18:25:11.068Z,2.53
2023-11-28T18:30:15.831Z,2.60
2023-11-28T18:35:19.329Z,2.62
2023-11-28T18:40:23.146Z,2.65
2023-11-28T18:45:28.013Z,2.67
2023-11-28T18:50:32.526Z,2.66
2023-11-28T18:55:35.730Z,2.60
2023-11-28T19:00:40.381Z,2.53
2023-11-28T19:05:43.621Z,2.42
2023-11-28T19:10:46.832Z,2.35
2023-11-28T19:15:51.520Z,2.28
2023-11-28T19:20:54.707Z,2.25
2023-11-28T19:25:57.919Z,2.21
2023-11-28T19:31:02.509Z,2.18
2023-11-28T19:36:06.725Z,2.13
2023-11-28T19:41:11.458Z,2.08
2023-11-28T19:46:16.397Z,2.07
2023-11-28T19:51:19.845Z,2.04
2023-11-28T19:56:24.391Z,2.10
2023-11-28T20:01:29.102Z,2.16
2023-11-28T20:06:32.383Z,2.22
2023-11-28T20:11:38.658Z,2.22
2023-11-28T20:16:45.408Z,2.23
2023-11-28T20:21:49.043Z,2.29
2023-11-28T20:26:54.147Z,2.28
2023-11-28T20:31:58.737Z,2.27
2023-11-28T20:37:14.047Z,2.24
2023-11-28T20:42:26.233Z,2.20
2023-11-28T20:47:31.027Z,2.17
2023-11-28T20:52:34.297Z,2.21
2023-11-28T20:57:37.579Z,2.31
2023-11-28T21:02:42.382Z,2.34
2023-11-28T21:07:46.335Z,2.30
2023-11-28T21:12:52.089Z,2.28
2023-11-28T21:17:59.819Z,2.25
2023-11-28T21:23:03.540Z,2.19
2023-11-28T21:28:07.205Z,2.14
2023-11-28T21:33:14.450Z,2.09
2023-11-28T21:38:17.896Z,2.06
2023-11-28T21:43:25.209Z,2.04
2023-11-28T21:48:30.758Z,2.05
2023-11-28T21:53:36.678Z,2.07
2023-11-28T21:58:40.000Z,2.04
2023-11-28T22:03:45.348Z,2.01
2023-11-28T22:08:56.960Z,2.07
2023-11-28T22:14:06.824Z,2.10
2023-11-28T22:19:11.295Z,2.11
2023-11-28T22:24:14.366Z,2.09
2023-11-28T22:29:18.832Z,2.13
2023-11-28T22:34:23.439Z,2.21
2023-11-28T22:39:26.576Z,2.15
2023-11-28T22:44:30.096Z,2.09
2023-11-28T22:49:34.620Z,2.13
2023-11-28T22:54:39.050Z,2.29
2023-11-28T22:59:42.887Z,2.41
2023-11-28T23:04:47.324Z,2.52
2023-11-28T23:09:50.788Z,2.58
2023-11-28T23:14:54.548Z,2.72
2023-11-28T23:19:59.541Z,2.82
2023-11-28T23:25:02.807Z,2.84
2023-11-28T23:30:07.491Z,2.79
2023-11-28T23:35:12.119Z,1.93
2023-11-28T23:40:15.560Z,1.55
2023-11-28T23:45:20.551Z,1.37
2023-11-28T23:50:25.085Z,1.18
2023-11-28T23:55:28.368Z,1.14
